Time;durP1;ratioP1;P1;durP2;ratioP2;P2;SDS_P1;SDS_P2;PMS_P1;PMS_P2;Temp;Humidity;BMP_temperature;BMP_pressure;BME280_temperature;BME280_humidity;BME280_pressure;Samples;Min_cycle;Max_cycle;Signal;HPM_P1;HPM_P2
2022/08/26 00:00:16;;;;;;;11.80;7.45;;;;;;;;;;1762312;81;21659;-68
2022/08/26 00:02:42;;;;;;;13.15;7.90;;;;;;;;;;1755306;81;21080;-68
2022/08/26 00:05:08;;;;;;;10.60;6.95;;;;;;;;;;1758748;81;22142;-68
2022/08/26 00:07:36;;;;;;;13.20;7.80;;;;;;;;;;1760788;80;21135;-69
2022/08/26 00:10:03;;;;;;;12.00;7.42;;;;;;;;;;1757156;81;21092;-69
2022/08/26 00:12:29;;;;;;;9.83;6.87;;;;;;;;;;1755918;81;21067;-69
2022/08/26 00:14:55;;;;;;;10.58;7.50;;;;;;;;;;1759791;80;21029;-69
2022/08/26 00:17:21;;;;;;;9.80;6.95;;;;;;;;;;1762141;81;21025;-69
2022/08/26 00:19:47;;;;;;;9.45;7.60;;;;;;;;;;1764694;81;21870;-68
2022/08/26 00:22:13;;;;;;;11.75;7.72;;;;;;;;;;1759434;81;21075;-68
2022/08/26 00:24:39;;;;;;;12.07;7.85;;;;;;;;;;1757909;81;21028;-68
2022/08/26 00:27:05;;;;;;;9.43;7.12;;;;;;;;;;1755291;81;20956;-68
2022/08/26 00:29:33;;;;;;;10.10;7.37;;;;;;;;;;1758415;81;21037;-68
2022/08/26 00:32:00;;;;;;;10.90;7.33;;;;;;;;;;1759020;81;21009;-68
2022/08/26 00:34:26;;;;;;;10.65;6.92;;;;;;;;;;1754640;81;21520;-68
2022/08/26 00:36:52;;;;;;;10.88;7.47;;;;;;;;;;1759627;81;20982;-69
2022/08/26 00:39:19;;;;;;;8.38;6.92;;;;;;;;;;1765757;81;21064;-69
2022/08/26 00:41:45;;;;;;;10.53;7.22;;;;;;;;;;1761151;81;21000;-68
2022/08/26 00:44:11;;;;;;;9.55;7.20;;;;;;;;;;1760441;81;21008;-68
2022/08/26 00:46:51;;;;;;;13.65;6.62;;;;;;;;;;1752498;81;21017;-68
2022/08/26 00:49:19;;;;;;;10.88;7.28;;;;;;;;;;1758893;81;21595;-69
2022/08/26 00:51:47;;;;;;;10.85;7.03;;;;;;;;;;1753244;81;21063;-69
2022/08/26 00:54:13;;;;;;;10.53;6.58;;;;;;;;;;1757737;81;21028;-68
2022/08/26 00:56:53;;;;;;;9.68;6.62;;;;;;;;;;1750243;80;21587;-68
2022/08/26 00:59:18;;;;;;;8.90;6.92;;;;;;;;;;1759621;81;21009;-68
2022/08/26 01:05:56;;;;;;;11.12;7.10;;;;;;;;;;1798047;79;23674;-71
2022/08/26 01:08:24;;;;;;;9.45;6.58;;;;;;;;;;1784587;80;21566;-72
2022/08/26 01:10:51;;;;;;;9.38;6.40;;;;;;;;;;1782849;80;21096;-71
2022/08/26 01:13:17;;;;;;;10.43;6.67;;;;;;;;;;1795794;79;20965;-71
2022/08/26 01:15:44;;;;;;;9.08;6.50;;;;;;;;;;1791289;79;21022;-72
2022/08/26 01:18:10;;;;;;;11.53;6.45;;;;;;;;;;1802113;79;21123;-71
2022/08/26 01:20:42;;;;;;;10.68;6.70;;;;;;;;;;1788712;80;21499;-72
2022/08/26 01:23:08;;;;;;;8.58;6.08;;;;;;;;;;1789584;80;21040;-71
2022/08/26 01:25:37;;;;;;;10.50;6.22;;;;;;;;;;1786581;79;21497;-71
2022/08/26 01:28:04;;;;;;;8.75;5.97;;;;;;;;;;1787992;80;21028;-71
2022/08/26 01:30:32;;;;;;;9.30;6.28;;;;;;;;;;1789700;80;21047;-71
2022/08/26 01:32:58;;;;;;;9.13;6.42;;;;;;;;;;1785292;80;21059;-72
2022/08/26 01:35:24;;;;;;;7.53;6.10;;;;;;;;;;1789422;80;22345;-72
2022/08/26 01:37:51;;;;;;;10.85;5.80;;;;;;;;;;1787074;80;21029;-72
2022/08/26 01:40:17;;;;;;;8.85;5.90;;;;;;;;;;1784770;80;21004;-72
2022/08/26 01:42:43;;;;;;;7.80;6.35;;;;;;;;;;1786468;80;21021;-72
2022/08/26 01:45:10;;;;;;;10.58;6.75;;;;;;;;;;1785282;80;21495;-71
2022/08/26 01:47:36;;;;;;;8.83;6.10;;;;;;;;;;1783520;80;20998;-72
2022/08/26 01:50:04;;;;;;;9.10;6.45;;;;;;;;;;1789555;79;20988;-72
2022/08/26 01:52:30;;;;;;;9.38;6.47;;;;;;;;;;1785181;80;21017;-72
2022/08/26 01:54:56;;;;;;;11.55;6.67;;;;;;;;;;1788235;79;21656;-72
2022/08/26 01:57:22;;;;;;;8.93;6.75;;;;;;;;;;1763099;80;21031;-72
2022/08/26 01:59:49;;;;;;;13.70;6.42;;;;;;;;;;1787448;80;21060;-72
2022/08/26 02:02:15;;;;;;;10.20;6.47;;;;;;;;;;1778319;80;21608;-72
2022/08/26 02:04:47;;;;;;;9.03;5.70;;;;;;;;;;1759792;80;21091;-71
2022/08/26 02:07:14;;;;;;;7.85;5.92;;;;;;;;;;1752493;81;21070;-72
2022/08/26 02:09:40;;;;;;;8.85;6.67;;;;;;;;;;1755732;81;21512;-72
2022/08/26 02:12:06;;;;;;;7.95;6.20;;;;;;;;;;1755004;81;20993;-72
2022/08/26 02:14:33;;;;;;;9.83;6.53;;;;;;;;;;1755409;80;21670;-71
2022/08/26 02:16:59;;;;;;;11.00;6.72;;;;;;;;;;1723537;82;21096;-71
2022/08/26 02:19:27;;;;;;;10.65;6.70;;;;;;;;;;1755396;81;21050;-72
2022/08/26 02:21:53;;;;;;;8.95;6.10;;;;;;;;;;1744408;81;21387;-72
2022/08/26 02:24:20;;;;;;;9.80;7.03;;;;;;;;;;1749890;81;21029;-72
2022/08/26 02:26:47;;;;;;;10.20;6.62;;;;;;;;;;1758628;81;21189;-71
2022/08/26 02:29:18;;;;;;;10.10;5.95;;;;;;;;;;1739586;81;21495;-71
2022/08/26 02:31:44;;;;;;;10.32;6.62;;;;;;;;;;1755646;81;21064;-72
2022/08/26 02:34:12;;;;;;;9.83;6.47;;;;;;;;;;1755644;81;21010;-71
2022/08/26 02:36:38;;;;;;;10.75;6.92;;;;;;;;;;1752053;81;21046;-71
2022/08/26 02:39:06;;;;;;;12.88;6.62;;;;;;;;;;1753817;81;21520;-72
2022/08/26 02:41:32;;;;;;;10.38;6.53;;;;;;;;;;1755651;81;21011;-72
2022/08/26 02:43:58;;;;;;;8.73;6.20;;;;;;;;;;1749285;82;21037;-71
2022/08/26 02:46:24;;;;;;;27.40;7.62;;;;;;;;;;1753550;81;20981;-71
2022/08/26 02:48:50;;;;;;;16.90;6.47;;;;;;;;;;1752872;81;21481;-72
2022/08/26 02:51:16;;;;;;;10.23;6.70;;;;;;;;;;1755904;81;20986;-72
2022/08/26 02:53:42;;;;;;;7.65;5.60;;;;;;;;;;1757419;81;20995;-71
2022/08/26 02:56:08;;;;;;;13.55;6.80;;;;;;;;;;1753665;81;21036;-72
2022/08/26 02:58:34;;;;;;;11.43;6.30;;;;;;;;;;1749179;81;21018;-72
2022/08/26 03:01:00;;;;;;;7.78;6.35;;;;;;;;;;1751038;81;21017;-71
2022/08/26 03:03:26;;;;;;;10.00;6.22;;;;;;;;;;1750879;81;21525;-71
2022/08/26 03:05:52;;;;;;;9.10;6.20;;;;;;;;;;1756897;80;21044;-71
2022/08/26 03:08:18;;;;;;;9.20;5.87;;;;;;;;;;1757432;80;21051;-72
2022/08/26 03:10:46;;;;;;;8.63;6.78;;;;;;;;;;1721847;83;21024;-72
2022/08/26 03:13:13;;;;;;;8.70;5.58;;;;;;;;;;1714778;83;21050;-71
2022/08/26 03:15:39;;;;;;;9.88;6.42;;;;;;;;;;1703743;83;21587;-72
2022/08/26 03:18:05;;;;;;;9.60;6.95;;;;;;;;;;1678479;84;21030;-72
2022/08/26 03:20:31;;;;;;;11.12;7.00;;;;;;;;;;1690510;83;21057;-72
2022/08/26 03:22:57;;;;;;;9.95;6.17;;;;;;;;;;1713343;82;21416;-71
2022/08/26 03:25:24;;;;;;;10.98;6.28;;;;;;;;;;1700399;84;21658;-71
2022/08/26 03:27:51;;;;;;;8.68;6.08;;;;;;;;;;1701057;84;21020;-72
2022/08/26 03:33:01;;;;;;;8.98;6.08;;;;;;;;;;1705158;84;21057;-72
2022/08/26 03:35:27;;;;;;;8.88;6.30;;;;;;;;;;1712494;83;21103;-72
2022/08/26 03:37:53;;;;;;;9.43;5.22;;;;;;;;;;1715912;83;21046;-72
2022/08/26 03:40:19;;;;;;;9.68;5.60;;;;;;;;;;1724401;83;21019;-71
2022/08/26 03:42:45;;;;;;;8.00;6.20;;;;;;;;;;1719209;83;20970;-72
2022/08/26 03:45:12;;;;;;;7.35;5.50;;;;;;;;;;1711367;83;21142;-71
2022/08/26 03:47:38;;;;;;;9.00;6.20;;;;;;;;;;1708476;83;21520;-72
2022/08/26 03:50:05;;;;;;;8.43;5.50;;;;;;;;;;1710108;83;20957;-71
2022/08/26 03:52:32;;;;;;;13.05;6.10;;;;;;;;;;1695388;83;21560;-72
2022/08/26 03:54:58;;;;;;;9.15;5.53;;;;;;;;;;1698996;83;21036;-72
2022/08/26 03:57:24;;;;;;;8.13;5.45;;;;;;;;;;1714308;83;21026;-72
2022/08/26 03:59:50;;;;;;;8.30;5.60;;;;;;;;;;1716477;83;21038;-72
2022/08/26 04:02:16;;;;;;;9.35;5.83;;;;;;;;;;1709088;83;21025;-71
2022/08/26 04:04:42;;;;;;;11.70;5.55;;;;;;;;;;1697468;83;21584;-72
2022/08/26 04:07:08;;;;;;;8.43;5.30;;;;;;;;;;1700161;84;21564;-71
2022/08/26 04:09:35;;;;;;;10.08;5.85;;;;;;;;;;1691874;84;21084;-72
2022/08/26 04:12:02;;;;;;;6.65;5.30;;;;;;;;;;1688773;84;21045;-71
2022/08/26 04:14:29;;;;;;;10.23;5.37;;;;;;;;;;1704225;84;21564;-71
2022/08/26 04:16:55;;;;;;;16.62;6.62;;;;;;;;;;1701350;84;21056;-71
2022/08/26 04:19:22;;;;;;;11.25;5.92;;;;;;;;;;1694397;84;21017;-70
2022/08/26 04:21:47;;;;;;;11.63;5.70;;;;;;;;;;1704550;84;21028;-70
2022/08/26 04:24:14;;;;;;;10.08;5.00;;;;;;;;;;1702570;84;21092;-70
2022/08/26 04:26:40;;;;;;;10.43;5.55;;;;;;;;;;1697785;84;21073;-70
2022/08/26 04:29:08;;;;;;;9.40;5.55;;;;;;;;;;1731299;82;21006;-71
2022/08/26 04:31:35;;;;;;;9.40;5.53;;;;;;;;;;1733655;82;21065;-72
2022/08/26 04:34:01;;;;;;;11.05;5.25;;;;;;;;;;1732252;82;21025;-71
2022/08/26 04:36:27;;;;;;;8.75;5.53;;;;;;;;;;1733170;82;21555;-72
2022/08/26 04:38:54;;;;;;;8.85;5.15;;;;;;;;;;1727695;81;21571;-71
2022/08/26 04:41:19;;;;;;;11.20;5.97;;;;;;;;;;1724202;82;21040;-71
2022/08/26 04:43:46;;;;;;;13.35;5.65;;;;;;;;;;1732152;82;21100;-72
2022/08/26 04:46:12;;;;;;;12.82;5.42;;;;;;;;;;1730575;81;21520;-71
2022/08/26 04:48:38;;;;;;;9.70;6.30;;;;;;;;;;1733263;82;21021;-71
2022/08/26 04:51:04;;;;;;;9.63;5.35;;;;;;;;;;1734521;82;21044;-70
2022/08/26 04:53:30;;;;;;;10.65;5.65;;;;;;;;;;1732573;82;21539;-72
2022/08/26 04:55:56;;;;;;;9.80;5.87;;;;;;;;;;1738717;82;21026;-71
2022/08/26 04:58:23;;;;;;;7.87;5.33;;;;;;;;;;1732573;82;21044;-71
2022/08/26 05:00:50;;;;;;;8.73;5.30;;;;;;;;;;1734219;82;20989;-72
2022/08/26 05:03:19;;;;;;;30.35;6.87;;;;;;;;;;1729423;81;21591;-71
2022/08/26 05:05:45;;;;;;;11.65;6.00;;;;;;;;;;1731780;81;21046;-69
2022/08/26 05:08:12;;;;;;;11.97;6.15;;;;;;;;;;1747287;81;21073;-68
2022/08/26 05:10:42;;;;;;;10.58;5.25;;;;;;;;;;1755039;81;21107;-70
2022/08/26 05:13:08;;;;;;;10.50;5.92;;;;;;;;;;1757251;81;21054;-73
2022/08/26 05:15:35;;;;;;;8.63;5.20;;;;;;;;;;1742474;81;21041;-73
2022/08/26 05:18:04;;;;;;;10.55;5.50;;;;;;;;;;1752611;81;21354;-72
2022/08/26 05:20:31;;;;;;;10.43;5.25;;;;;;;;;;1747750;82;21098;-71
2022/08/26 05:23:00;;;;;;;10.32;5.60;;;;;;;;;;1753394;81;21048;-71
2022/08/26 05:25:29;;;;;;;9.10;5.50;;;;;;;;;;1755613;81;21009;-72
2022/08/26 05:27:55;;;;;;;11.33;5.67;;;;;;;;;;1754067;81;20992;-71
2022/08/26 05:30:21;;;;;;;9.63;5.25;;;;;;;;;;1753949;81;21050;-71
2022/08/26 05:32:48;;;;;;;9.73;5.67;;;;;;;;;;1753933;81;22343;-68
2022/08/26 05:35:15;;;;;;;8.00;5.42;;;;;;;;;;1745056;82;21036;-69
2022/08/26 05:37:42;;;;;;;11.78;6.00;;;;;;;;;;1753405;81;21079;-70
2022/08/26 05:40:08;;;;;;;10.68;5.30;;;;;;;;;;1763149;81;21041;-70
2022/08/26 05:42:34;;;;;;;11.73;5.87;;;;;;;;;;1754128;81;21054;-71
2022/08/26 05:45:00;;;;;;;14.40;5.78;;;;;;;;;;1749529;82;21056;-71
2022/08/26 05:47:26;;;;;;;12.63;5.42;;;;;;;;;;1748562;81;21115;-70
2022/08/26 05:49:52;;;;;;;7.22;4.75;;;;;;;;;;1758695;81;20981;-71
2022/08/26 05:52:18;;;;;;;11.63;5.25;;;;;;;;;;1747337;81;21028;-70
2022/08/26 05:54:44;;;;;;;14.03;6.37;;;;;;;;;;1753424;81;21033;-71
2022/08/26 05:57:12;;;;;;;25.57;18.40;;;;;;;;;;1755752;81;21524;-70
2022/08/26 05:59:38;;;;;;;29.07;21.93;;;;;;;;;;1750688;82;21062;-70
2022/08/26 06:02:05;;;;;;;13.55;7.12;;;;;;;;;;1764996;81;21536;-70
2022/08/26 06:04:31;;;;;;;11.70;5.65;;;;;;;;;;1761782;80;21024;-70
2022/08/26 06:06:57;;;;;;;12.78;6.33;;;;;;;;;;1724521;81;21021;-67
2022/08/26 06:09:23;;;;;;;9.10;5.37;;;;;;;;;;1734196;81;20996;-71
2022/08/26 06:11:49;;;;;;;13.72;5.97;;;;;;;;;;1731352;82;21639;-69
2022/08/26 06:14:16;;;;;;;13.15;5.62;;;;;;;;;;1735762;82;21097;-71
2022/08/26 06:16:43;;;;;;;12.18;5.30;;;;;;;;;;1720269;81;21046;-73
2022/08/26 06:19:10;;;;;;;13.55;5.60;;;;;;;;;;1738517;81;21028;-74
2022/08/26 06:21:38;;;;;;;10.58;5.65;;;;;;;;;;1737176;81;21065;-72
2022/08/26 06:26:51;;;;;;;16.70;5.95;;;;;;;;;;1741050;81;21512;-71
2022/08/26 06:29:18;;;;;;;13.68;5.40;;;;;;;;;;1735670;81;21001;-72
2022/08/26 06:31:45;;;;;;;13.30;5.42;;;;;;;;;;1720544;81;21052;-72
2022/08/26 06:34:11;;;;;;;9.65;5.53;;;;;;;;;;1747707;81;21036;-71
2022/08/26 06:36:39;;;;;;;11.90;5.35;;;;;;;;;;1739735;79;21053;-72
2022/08/26 06:39:08;;;;;;;10.50;5.47;;;;;;;;;;1747308;81;21140;-73
2022/08/26 06:41:34;;;;;;;12.07;5.87;;;;;;;;;;1751186;81;21507;-72
2022/08/26 06:44:00;;;;;;;10.25;5.37;;;;;;;;;;1736921;82;21057;-73
2022/08/26 06:46:26;;;;;;;9.48;5.50;;;;;;;;;;1735898;82;21049;-73
2022/08/26 06:48:53;;;;;;;8.30;4.75;;;;;;;;;;1734937;82;21044;-71
2022/08/26 06:51:21;;;;;;;14.47;5.55;;;;;;;;;;1740258;81;21096;-72
2022/08/26 06:53:47;;;;;;;12.10;5.55;;;;;;;;;;1749807;82;21012;-73
2022/08/26 06:56:15;;;;;;;10.43;5.30;;;;;;;;;;1754369;82;21102;-73
2022/08/26 06:58:41;;;;;;;10.70;5.65;;;;;;;;;;1752874;81;21343;-72
2022/08/26 07:01:17;;;;;;;10.50;5.05;;;;;;;;;;1758067;81;21037;-72
2022/08/26 07:03:44;;;;;;;15.35;5.90;;;;;;;;;;1751176;81;21049;-72
2022/08/26 07:06:10;;;;;;;8.63;5.65;;;;;;;;;;1744827;82;21060;-73
2022/08/26 07:08:36;;;;;;;12.03;5.05;;;;;;;;;;1755738;81;21052;-72
2022/08/26 07:11:04;;;;;;;14.18;5.35;;;;;;;;;;1756205;81;21090;-73
2022/08/26 07:13:30;;;;;;;11.63;5.12;;;;;;;;;;1756916;81;20995;-73
2022/08/26 07:15:56;;;;;;;13.22;4.80;;;;;;;;;;1753150;81;21048;-73
2022/08/26 07:18:22;;;;;;;13.03;5.20;;;;;;;;;;1743070;81;21029;-72
2022/08/26 07:20:48;;;;;;;18.02;5.05;;;;;;;;;;1732490;81;21022;-73
2022/08/26 07:23:15;;;;;;;14.53;5.50;;;;;;;;;;1754213;82;21076;-73
2022/08/26 07:25:41;;;;;;;10.45;4.95;;;;;;;;;;1755407;82;21085;-71
2022/08/26 07:28:07;;;;;;;12.55;4.97;;;;;;;;;;1754117;81;21112;-72
2022/08/26 07:30:36;;;;;;;14.38;4.97;;;;;;;;;;1755775;81;21084;-72
2022/08/26 07:33:02;;;;;;;8.73;4.92;;;;;;;;;;1755583;81;21014;-72
2022/08/26 07:35:28;;;;;;;20.62;5.78;;;;;;;;;;1754681;81;21076;-72
2022/08/26 07:37:54;;;;;;;13.75;5.00;;;;;;;;;;1756321;81;21034;-73
2022/08/26 07:40:20;;;;;;;15.20;4.78;;;;;;;;;;1756206;80;21058;-72
2022/08/26 07:42:47;;;;;;;11.40;5.05;;;;;;;;;;1755767;81;21066;-71
2022/08/26 07:45:13;;;;;;;14.05;5.33;;;;;;;;;;1758011;81;21032;-69
2022/08/26 07:47:40;;;;;;;12.50;5.05;;;;;;;;;;1754702;81;21120;-72
2022/08/26 07:50:07;;;;;;;15.53;5.42;;;;;;;;;;1755792;81;21066;-73
2022/08/26 07:52:33;;;;;;;11.50;4.87;;;;;;;;;;1756077;81;21092;-72
2022/08/26 07:55:00;;;;;;;17.98;4.87;;;;;;;;;;1756850;81;21125;-76
2022/08/26 07:57:27;;;;;;;12.80;4.67;;;;;;;;;;1758358;81;22123;-73
2022/08/26 07:59:53;;;;;;;12.28;4.72;;;;;;;;;;1758421;81;21042;-73
2022/08/26 08:02:19;;;;;;;9.93;4.90;;;;;;;;;;1756555;81;21069;-74
2022/08/26 08:04:45;;;;;;;12.63;5.10;;;;;;;;;;1755570;82;21025;-74
2022/08/26 08:07:11;;;;;;;10.48;4.75;;;;;;;;;;1759487;81;21009;-74
2022/08/26 08:09:37;;;;;;;10.55;4.60;;;;;;;;;;1701106;82;20985;-74
2022/08/26 08:12:03;;;;;;;11.15;4.80;;;;;;;;;;1666615;84;21538;-74
2022/08/26 08:14:29;;;;;;;11.05;4.70;;;;;;;;;;1689807;85;21085;-74
2022/08/26 08:16:57;;;;;;;13.38;4.78;;;;;;;;;;1695230;84;21585;-74
2022/08/26 08:19:23;;;;;;;7.40;4.00;;;;;;;;;;1700963;83;21057;-74
2022/08/26 08:21:49;;;;;;;12.70;5.08;;;;;;;;;;1714637;83;21100;-74
2022/08/26 08:24:15;;;;;;;12.13;4.60;;;;;;;;;;1713528;83;21081;-74
2022/08/26 08:26:41;;;;;;;13.35;4.40;;;;;;;;;;1714658;83;21041;-73
2022/08/26 08:29:07;;;;;;;10.32;4.90;;;;;;;;;;1718640;83;21041;-73
2022/08/26 08:31:33;;;;;;;18.65;4.67;;;;;;;;;;1719588;83;21037;-73
2022/08/26 08:34:00;;;;;;;17.42;5.17;;;;;;;;;;1712368;83;21618;-74
2022/08/26 08:36:27;;;;;;;20.72;4.70;;;;;;;;;;1700475;83;21002;-74
2022/08/26 08:38:53;;;;;;;10.40;4.33;;;;;;;;;;1699649;83;21053;-74
2022/08/26 08:41:30;;;;;;;11.93;4.55;;;;;;;;;;1713866;83;21112;-73
2022/08/26 08:43:56;;;;;;;9.85;4.30;;;;;;;;;;1699163;83;21009;-74
2022/08/26 08:46:22;;;;;;;10.50;4.40;;;;;;;;;;1706870;83;21111;-73
2022/08/26 08:48:50;;;;;;;11.68;4.22;;;;;;;;;;1718213;83;21145;-77
2022/08/26 08:51:22;;;;;;;14.45;4.10;;;;;;;;;;1700216;83;21053;-77
2022/08/26 08:53:49;;;;;;;24.15;4.80;;;;;;;;;;1704418;83;21047;-72
2022/08/26 08:56:16;;;;;;;10.00;3.83;;;;;;;;;;1719205;83;20981;-75
2022/08/26 08:58:44;;;;;;;7.97;3.60;;;;;;;;;;1706226;83;21071;-75
2022/08/26 09:01:12;;;;;;;9.35;3.90;;;;;;;;;;1700540;83;21041;-75
2022/08/26 09:03:43;;;;;;;8.83;3.52;;;;;;;;;;1723266;83;21130;-75
2022/08/26 09:06:15;;;;;;;7.95;3.20;;;;;;;;;;1718524;83;21122;-74
2022/08/26 09:08:37;;;;;;;10.03;3.85;;;;;;;;;;1716741;82;21520;-75
2022/08/26 09:11:03;;;;;;;10.00;3.35;;;;;;;;;;1731870;83;21043;-74
2022/08/26 09:13:29;;;;;;;10.88;3.42;;;;;;;;;;1721225;82;21030;-73
2022/08/26 09:16:05;;;;;;;7.83;3.33;;;;;;;;;;1685576;84;21058;-77
2022/08/26 09:18:40;;;;;;;7.10;3.47;;;;;;;;;;1731081;82;21092;-74
2022/08/26 09:21:07;;;;;;;12.82;3.30;;;;;;;;;;1741559;82;21057;-74
2022/08/26 09:23:34;;;;;;;13.22;3.62;;;;;;;;;;1734959;82;22052;-74
2022/08/26 09:26:02;;;;;;;10.68;3.47;;;;;;;;;;1731864;82;21051;-73
2022/08/26 09:28:29;;;;;;;8.40;3.30;;;;;;;;;;1732162;83;21137;-75
2022/08/26 09:31:03;;;;;;;12.35;3.62;;;;;;;;;;1748885;82;21059;-76
2022/08/26 09:33:30;;;;;;;7.97;3.60;;;;;;;;;;1734601;82;21094;-76
2022/08/26 09:36:13;;;;;;;11.08;3.22;;;;;;;;;;1738224;82;21043;-76
2022/08/26 09:38:40;;;;;;;21.55;3.58;;;;;;;;;;1737189;82;21317;-76
2022/08/26 09:41:09;;;;;;;10.20;3.00;;;;;;;;;;1736967;82;21025;-76
2022/08/26 09:43:35;;;;;;;9.83;3.62;;;;;;;;;;1735588;82;21030;-75
2022/08/26 09:46:15;;;;;;;8.98;3.17;;;;;;;;;;1737104;82;20962;-75
2022/08/26 09:48:42;;;;;;;8.55;2.90;;;;;;;;;;1738361;82;21545;-76
2022/08/26 09:51:22;;;;;;;9.50;2.85;;;;;;;;;;1692147;84;21037;-75
2022/08/26 09:53:52;;;;;;;8.28;2.92;;;;;;;;;;1720709;81;21535;-75
2022/08/26 09:56:22;;;;;;;9.10;3.12;;;;;;;;;;1720255;83;21522;-76
2022/08/26 09:58:49;;;;;;;7.35;3.02;;;;;;;;;;1734136;81;21011;-76
2022/08/26 10:01:29;;;;;;;8.70;3.05;;;;;;;;;;1740131;82;21022;-76
2022/08/26 10:04:06;;;;;;;7.53;2.58;;;;;;;;;;1734316;82;21031;-75
2022/08/26 10:06:33;;;;;;;10.98;2.50;;;;;;;;;;1732074;82;21058;-75
2022/08/26 10:08:59;;;;;;;6.40;2.60;;;;;;;;;;1702183;83;21104;-74
2022/08/26 10:11:30;;;;;;;10.40;2.58;;;;;;;;;;1702497;84;21105;-74
2022/08/26 10:14:01;;;;;;;10.75;2.40;;;;;;;;;;1708151;82;21050;-74
2022/08/26 10:16:32;;;;;;;8.15;2.60;;;;;;;;;;1737301;82;21554;-76
2022/08/26 10:19:01;;;;;;;8.60;2.70;;;;;;;;;;1704028;82;21151;-75
2022/08/26 10:21:30;;;;;;;9.80;2.35;;;;;;;;;;1702028;84;21048;-76
2022/08/26 10:23:56;;;;;;;5.80;2.72;;;;;;;;;;1702708;84;21076;-74
2022/08/26 10:26:33;;;;;;;8.43;3.83;;;;;;;;;;1670366;84;21192;-74
2022/08/26 10:29:02;;;;;;;11.25;2.87;;;;;;;;;;1703254;82;21039;-73
2022/08/26 10:31:36;;;;;;;14.28;3.60;;;;;;;;;;1702867;82;21076;-74
2022/08/26 10:34:02;;;;;;;7.35;3.25;;;;;;;;;;1708238;82;21549;-74
2022/08/26 10:39:16;;;;;;;5.47;2.10;;;;;;;;;;1700202;82;21111;-74
2022/08/26 10:41:43;;;;;;;7.42;2.35;;;;;;;;;;1721447;82;21095;-75
2022/08/26 10:44:09;;;;;;;8.48;2.37;;;;;;;;;;1714639;82;21076;-74
2022/08/26 10:46:38;;;;;;;5.80;2.22;;;;;;;;;;1671277;86;21539;-75
2022/08/26 10:49:05;;;;;;;4.95;2.02;;;;;;;;;;1704273;82;21024;-75
2022/08/26 10:51:40;;;;;;;5.28;2.35;;;;;;;;;;1702737;84;21135;-75
2022/08/26 10:54:05;;;;;;;;;;;;;;;;;;1705037;84;21052;-75
2022/08/26 10:56:33;;;;;;;3.33;1.95;;;;;;;;;;1702406;84;20159;-74
2022/08/26 10:59:04;;;;;;;8.63;2.27;;;;;;;;;;1702028;83;21063;-74
2022/08/26 11:01:41;;;;;;;6.60;2.42;;;;;;;;;;1702332;84;21123;-75
2022/08/26 11:04:26;;;;;;;6.15;2.58;;;;;;;;;;1702357;84;21574;-74
2022/08/26 11:07:09;;;;;;;6.65;2.50;;;;;;;;;;1710114;81;21093;-74
2022/08/26 11:09:37;;;;;;;7.62;2.62;;;;;;;;;;1667216;85;21123;-74
2022/08/26 11:12:03;;;;;;;4.55;2.30;;;;;;;;;;1680538;85;21122;-74
2022/08/26 11:14:31;;;;;;;6.55;2.55;;;;;;;;;;1738034;82;21029;-74
2022/08/26 11:16:57;;;;;;;6.35;2.40;;;;;;;;;;1687198;85;21077;-74
2022/08/26 11:19:38;;;;;;;6.05;2.40;;;;;;;;;;1730852;81;21069;-74
2022/08/26 11:22:23;;;;;;;4.00;2.47;;;;;;;;;;1735813;82;21002;-75
2022/08/26 11:24:58;;;;;;;6.87;2.60;;;;;;;;;;1689897;85;21094;-75
2022/08/26 11:27:26;;;;;;;7.28;2.90;;;;;;;;;;1733676;82;21081;-75
2022/08/26 11:30:03;;;;;;;9.53;2.85;;;;;;;;;;1748335;82;21126;-75
2022/08/26 11:32:35;;;;;;;8.28;3.00;;;;;;;;;;1738369;82;21092;-75
2022/08/26 11:35:10;;;;;;;6.50;2.62;;;;;;;;;;1746406;82;21085;-74
2022/08/26 11:37:38;;;;;;;6.00;2.50;;;;;;;;;;1732698;82;21071;-75
2022/08/26 11:40:09;;;;;;;5.83;2.80;;;;;;;;;;1733647;82;21168;-75
2022/08/26 11:42:47;;;;;;;6.75;3.00;;;;;;;;;;1736434;82;21060;-72
2022/08/26 11:45:24;;;;;;;7.62;2.90;;;;;;;;;;1728783;82;21072;-74
2022/08/26 11:47:51;;;;;;;11.25;3.17;;;;;;;;;;1742356;82;21010;-74
2022/08/26 11:50:18;;;;;;;7.47;2.75;;;;;;;;;;1740035;81;21150;-74
2022/08/26 11:52:52;;;;;;;6.10;2.52;;;;;;;;;;1737804;82;21041;-75
2022/08/26 11:55:19;;;;;;;7.47;2.70;;;;;;;;;;1745608;82;21079;-75
2022/08/26 11:57:47;;;;;;;7.92;2.60;;;;;;;;;;1721107;82;21015;-76
2022/08/26 12:00:23;;;;;;;6.97;2.40;;;;;;;;;;1732111;83;21051;-76
2022/08/26 12:02:49;;;;;;;8.38;2.40;;;;;;;;;;1738883;82;21028;-75
2022/08/26 12:05:18;;;;;;;8.73;2.47;;;;;;;;;;1745580;82;21027;-76
2022/08/26 12:07:47;;;;;;;8.03;2.30;;;;;;;;;;1732944;82;21599;-75
2022/08/26 12:10:12;;;;;;;15.55;2.77;;;;;;;;;;1740684;82;20998;-75
2022/08/26 12:12:41;;;;;;;8.28;2.10;;;;;;;;;;1679146;85;21047;-75
2022/08/26 12:15:09;;;;;;;6.35;2.05;;;;;;;;;;1734696;82;21095;-75
2022/08/26 12:17:35;;;;;;;8.73;2.40;;;;;;;;;;1776050;81;20977;-76
2022/08/26 12:20:05;;;;;;;6.20;2.52;;;;;;;;;;1755059;81;21063;-74
2022/08/26 12:22:33;;;;;;;8.08;2.52;;;;;;;;;;1706998;82;21021;-74
2022/08/26 12:25:00;;;;;;;4.47;2.10;;;;;;;;;;1736186;82;21052;-75
2022/08/26 12:27:27;;;;;;;4.80;1.95;;;;;;;;;;1736772;82;20989;-74
2022/08/26 12:30:12;;;;;;;7.50;2.40;;;;;;;;;;1736877;82;20986;-75
2022/08/26 12:32:39;;;;;;;7.17;2.70;;;;;;;;;;1736966;82;21102;-74
2022/08/26 12:35:07;;;;;;;6.25;2.85;;;;;;;;;;1733690;82;21084;-73
2022/08/26 12:37:34;;;;;;;6.55;2.25;;;;;;;;;;1733937;82;21609;-75
2022/08/26 12:40:20;;;;;;;6.12;2.40;;;;;;;;;;1691142;85;21055;-74
2022/08/26 12:42:46;;;;;;;3.87;2.33;;;;;;;;;;1628434;87;21099;-74
2022/08/26 12:45:12;;;;;;;7.80;2.45;;;;;;;;;;1613686;88;21170;-73
2022/08/26 12:47:40;;;;;;;13.25;3.10;;;;;;;;;;1662650;82;21466;-74
2022/08/26 12:50:17;;;;;;;16.77;3.27;;;;;;;;;;1736233;82;21065;-74
2022/08/26 12:52:55;;;;;;;7.90;2.47;;;;;;;;;;1732325;82;21064;-73
2022/08/26 12:55:22;;;;;;;4.97;2.40;;;;;;;;;;1707861;83;21046;-75
2022/08/26 12:57:49;;;;;;;5.35;2.40;;;;;;;;;;1739319;82;21111;-74
2022/08/26 13:00:26;;;;;;;15.53;3.12;;;;;;;;;;1741956;82;21525;-74
2022/08/26 13:02:53;;;;;;;11.30;3.08;;;;;;;;;;1673390;85;21029;-74
2022/08/26 13:05:20;;;;;;;6.12;2.20;;;;;;;;;;1734474;82;21036;-75
2022/08/26 13:08:07;;;;;;;4.53;2.50;;;;;;;;;;1733353;82;21057;-75
2022/08/26 13:10:34;;;;;;;5.62;2.50;;;;;;;;;;1659812;86;21112;-75
2022/08/26 13:13:02;;;;;;;11.20;3.15;;;;;;;;;;1691760;84;21044;-75
2022/08/26 13:15:28;;;;;;;10.88;3.20;;;;;;;;;;1695634;84;21144;-76
2022/08/26 13:17:54;;;;;;;6.20;2.72;;;;;;;;;;1691593;85;21533;-75
2022/08/26 13:22:52;;;;;;;9.10;2.92;;;;;;;;;;1799638;79;22719;-69
2022/08/26 13:25:18;;;;;;;5.30;2.77;;;;;;;;;;1770677;80;21543;-70
2022/08/26 13:27:45;;;;;;;7.37;3.25;;;;;;;;;;1770700;80;21034;-71
2022/08/26 13:30:12;;;;;;;7.80;2.52;;;;;;;;;;1769474;80;21067;-71
2022/08/26 13:32:39;;;;;;;7.85;2.58;;;;;;;;;;1766246;80;21168;-71
2022/08/26 13:35:06;;;;;;;9.05;2.62;;;;;;;;;;1762182;80;21046;-71
2022/08/26 13:37:33;;;;;;;9.80;2.62;;;;;;;;;;1773333;80;20996;-71
2022/08/26 13:39:59;;;;;;;9.88;2.70;;;;;;;;;;1770745;80;21555;-72
2022/08/26 13:42:25;;;;;;;5.95;2.52;;;;;;;;;;1757904;81;21034;-72
2022/08/26 13:44:56;;;;;;;5.47;2.42;;;;;;;;;;1778871;80;21044;-72
2022/08/26 13:47:20;;;;;;;6.15;2.42;;;;;;;;;;1775887;80;21019;-71
2022/08/26 13:49:46;;;;;;;5.87;2.42;;;;;;;;;;1766914;80;21017;-71
2022/08/26 13:52:13;;;;;;;5.58;2.55;;;;;;;;;;1773142;80;21496;-71
2022/08/26 13:54:40;;;;;;;6.47;2.52;;;;;;;;;;1779300;79;21033;-69
2022/08/26 13:57:06;;;;;;;11.22;3.20;;;;;;;;;;1754384;80;21063;-69
2022/08/26 13:59:32;;;;;;;5.60;2.60;;;;;;;;;;1778391;80;21043;-69
2022/08/26 14:02:00;;;;;;;4.67;2.50;;;;;;;;;;1756458;80;21069;-69
2022/08/26 14:04:26;;;;;;;6.47;2.35;;;;;;;;;;1741904;82;21513;-72
2022/08/26 14:06:53;;;;;;;8.45;2.90;;;;;;;;;;1747219;80;21005;-71
2022/08/26 14:09:19;;;;;;;4.10;2.42;;;;;;;;;;1748707;82;21001;-71
2022/08/26 14:11:46;;;;;;;3.08;2.30;;;;;;;;;;1732503;82;21627;-72
2022/08/26 14:14:12;;;;;;;8.05;2.70;;;;;;;;;;1725798;82;21091;-72
2022/08/26 14:16:38;;;;;;;6.37;2.95;;;;;;;;;;1739350;82;21060;-71
2022/08/26 14:19:05;;;;;;;6.08;2.45;;;;;;;;;;1748676;82;21052;-72
2022/08/26 14:21:31;;;;;;;5.72;2.30;;;;;;;;;;1719754;82;21093;-72
2022/08/26 14:23:57;;;;;;;4.12;2.62;;;;;;;;;;1708510;81;21060;-69
2022/08/26 14:26:23;;;;;;;5.70;2.50;;;;;;;;;;1759447;81;22189;-71
2022/08/26 14:28:49;;;;;;;9.98;2.72;;;;;;;;;;1758732;81;21998;-70
2022/08/26 14:31:16;;;;;;;5.58;2.52;;;;;;;;;;1745864;81;21602;-71
2022/08/26 14:33:42;;;;;;;14.28;3.15;;;;;;;;;;1751928;81;21075;-71
2022/08/26 14:38:53;;;;;;;11.30;3.37;;;;;;;;;;1749119;81;21627;-71
2022/08/26 14:41:20;;;;;;;7.53;2.90;;;;;;;;;;1752503;81;21551;-71
2022/08/26 14:43:50;;;;;;;12.98;3.35;;;;;;;;;;1755077;81;21131;-71
2022/08/26 14:46:18;;;;;;;9.00;2.70;;;;;;;;;;1751416;81;21016;-70
2022/08/26 14:48:46;;;;;;;5.85;2.62;;;;;;;;;;1750904;81;21063;-70
2022/08/26 14:51:12;;;;;;;6.28;2.55;;;;;;;;;;1746747;81;21110;-71
2022/08/26 14:56:23;;;;;;;6.47;2.72;;;;;;;;;;1760933;81;21056;-71
2022/08/26 14:58:49;;;;;;;5.95;2.80;;;;;;;;;;1758584;81;20957;-72
2022/08/26 15:01:15;;;;;;;11.33;2.83;;;;;;;;;;1756884;81;21622;-73